This is the latest recevied weather packets stored in our database for station/object KQ4NAL. If no packets are shown the sender has not sent any weather packets the latest 10 day(s).
| Time | Temp. | Humidity | Pressure | Rain* | Wind** | Luminosity | Snow |
|---|---|---|---|---|---|---|---|
| 1777259441 | 12.22° C | 88% | 1018.7 hPa | 0 mm | - | 0 W/m² | - |
| 1777259138 | 12.22° C | 88% | 1018.5 hPa | 0 mm | - | 0 W/m² | - |
| 1777258836 | 12.22° C | 88% | 1018.6 hPa | 0 mm | - | 0 W/m² | - |
| 1777258532 | 12.78° C | 88% | 1018.7 hPa | 0 mm | - | 0 W/m² | - |
| 1777258229 | 12.22° C | 89% | 1018.6 hPa | 0 mm | - | 0 W/m² | - |
| 1777257926 | 11.67° C | 89% | 1018.5 hPa | 0 mm | - | 0 W/m² | - |
| 1777257623 | 12.22° C | 89% | 1018.7 hPa | 0 mm | - | 0 W/m² | - |
| 1777257320 | 12.22° C | 89% | 1018.5 hPa | 0 mm | - | 0 W/m² | - |
| 1777257017 | 11.67° C | 88% | 1018.5 hPa | 0 mm | - | 0 W/m² | - |
| 1777256714 | 12.22° C | 87% | 1018.5 hPa | 0 mm | - | 0 W/m² | - |
| 1777256409 | 12.78° C | 86% | 1018.3 hPa | 0 mm | - | 0 W/m² | - |
| 1777256106 | 12.78° C | 86% | 1018.5 hPa | 0 mm | - | 0 W/m² | - |
| 1777255802 | 12.78° C | 86% | 1018.5 hPa | 0 mm | - | 0 W/m² | - |
| 1777255498 | 12.78° C | 86% | 1018.3 hPa | 0 mm | - | 0 W/m² | - |
| 1777255195 | 12.78° C | 85% | 1018.2 hPa | 0 mm | - | 0 W/m² | - |
| 1777254890 | 12.78° C | 84% | 1018.3 hPa | 0 mm | - | 0 W/m² | - |
| 1777254589 | 13.33° C | 83% | 1018 hPa | 0 mm | - | 0 W/m² | - |
| 1777254285 | 13.89° C | 80% | 1018.2 hPa | 0 mm | - | 0 W/m² | - |
| 1777253981 | 14.44° C | 80% | 1018.1 hPa | 0 mm | - | 0 W/m² | - |
| 1777253677 | 13.89° C | 82% | 1018.2 hPa | 0 mm | - | 0 W/m² | - |
| 1777253374 | 13.33° C | 83% | 1018.1 hPa | 0 mm | - | 0 W/m² | - |
| 1777253072 | 13.89° C | 82% | 1017.9 hPa | 0 mm | - | 0 W/m² | - |
| 1777252770 | 13.89° C | 82% | 1017.9 hPa | 0 mm | - | 0 W/m² | - |
| 1777252466 | 13.89° C | 81% | 1017.8 hPa | 0 mm | - | 0 W/m² | - |
| 1777252164 | 14.44° C | 79% | 1017.9 hPa | 0 mm | - | 0 W/m² | - |
* Rain latest hour (hover to see other rain measurements)
** Current wind speed in m/s (hover to see current wind gust speed)